sensor_id;sensor_type;location;lat;lon;timestamp;P1;durP1;ratioP1;P2;durP2;ratioP2
8060;SDS011;4073;42.626;25.386;2023-03-08T00:00:39;13.03;;;9.40;;
8060;SDS011;4073;42.626;25.386;2023-03-08T00:03:05;10.87;;;8.83;;
8060;SDS011;4073;42.626;25.386;2023-03-08T00:05:31;12.33;;;9.33;;
8060;SDS011;4073;42.626;25.386;2023-03-08T00:07:56;11.10;;;9.27;;
8060;SDS011;4073;42.626;25.386;2023-03-08T00:10:22;10.23;;;8.80;;
8060;SDS011;4073;42.626;25.386;2023-03-08T00:12:47;11.10;;;8.77;;
8060;SDS011;4073;42.626;25.386;2023-03-08T00:15:13;9.83;;;8.40;;
8060;SDS011;4073;42.626;25.386;2023-03-08T00:17:39;9.30;;;8.30;;
8060;SDS011;4073;42.626;25.386;2023-03-08T00:20:05;12.87;;;9.53;;
8060;SDS011;4073;42.626;25.386;2023-03-08T00:22:35;10.10;;;8.37;;
8060;SDS011;4073;42.626;25.386;2023-03-08T00:25:01;10.87;;;9.10;;
8060;SDS011;4073;42.626;25.386;2023-03-08T00:27:27;8.60;;;7.50;;
8060;SDS011;4073;42.626;25.386;2023-03-08T00:29:53;9.20;;;8.27;;
8060;SDS011;4073;42.626;25.386;2023-03-08T00:32:18;9.13;;;7.50;;
8060;SDS011;4073;42.626;25.386;2023-03-08T00:34:44;10.77;;;8.40;;
8060;SDS011;4073;42.626;25.386;2023-03-08T00:37:11;10.70;;;7.97;;
8060;SDS011;4073;42.626;25.386;2023-03-08T00:39:37;10.57;;;8.27;;
8060;SDS011;4073;42.626;25.386;2023-03-08T00:42:02;8.67;;;7.20;;
8060;SDS011;4073;42.626;25.386;2023-03-08T00:44:27;10.10;;;7.77;;
8060;SDS011;4073;42.626;25.386;2023-03-08T00:46:53;11.20;;;8.30;;
8060;SDS011;4073;42.626;25.386;2023-03-08T00:49:18;9.80;;;7.67;;
8060;SDS011;4073;42.626;25.386;2023-03-08T00:51:44;11.43;;;8.53;;
8060;SDS011;4073;42.626;25.386;2023-03-08T00:54:09;12.67;;;8.90;;
8060;SDS011;4073;42.626;25.386;2023-03-08T00:56:35;14.67;;;9.80;;
8060;SDS011;4073;42.626;25.386;2023-03-08T00:59:00;10.53;;;9.40;;
8060;SDS011;4073;42.626;25.386;2023-03-08T01:01:25;16.13;;;10.77;;
8060;SDS011;4073;42.626;25.386;2023-03-08T01:03:51;11.07;;;9.93;;
8060;SDS011;4073;42.626;25.386;2023-03-08T01:06:16;12.80;;;11.33;;
8060;SDS011;4073;42.626;25.386;2023-03-08T01:08:42;17.40;;;10.93;;
8060;SDS011;4073;42.626;25.386;2023-03-08T01:11:41;12.73;;;11.00;;
8060;SDS011;4073;42.626;25.386;2023-03-08T01:14:01;12.30;;;10.63;;
8060;SDS011;4073;42.626;25.386;2023-03-08T01:16:29;12.03;;;10.57;;
8060;SDS011;4073;42.626;25.386;2023-03-08T01:18:56;11.97;;;10.60;;
8060;SDS011;4073;42.626;25.386;2023-03-08T01:21:23;12.80;;;9.60;;
8060;SDS011;4073;42.626;25.386;2023-03-08T01:23:49;10.70;;;8.47;;
8060;SDS011;4073;42.626;25.386;2023-03-08T01:26:16;9.47;;;8.03;;
8060;SDS011;4073;42.626;25.386;2023-03-08T01:28:43;9.57;;;7.50;;
8060;SDS011;4073;42.626;25.386;2023-03-08T01:31:14;9.17;;;7.03;;
8060;SDS011;4073;42.626;25.386;2023-03-08T01:33:50;9.30;;;6.30;;
8060;SDS011;4073;42.626;25.386;2023-03-08T01:36:17;6.97;;;5.27;;
8060;SDS011;4073;42.626;25.386;2023-03-08T01:38:45;6.53;;;5.30;;
8060;SDS011;4073;42.626;25.386;2023-03-08T01:41:18;5.90;;;5.30;;
8060;SDS011;4073;42.626;25.386;2023-03-08T01:43:49;9.37;;;5.40;;
8060;SDS011;4073;42.626;25.386;2023-03-08T01:49:06;7.73;;;5.53;;
8060;SDS011;4073;42.626;25.386;2023-03-08T01:51:35;5.87;;;5.00;;
8060;SDS011;4073;42.626;25.386;2023-03-08T01:54:06;6.17;;;5.30;;
8060;SDS011;4073;42.626;25.386;2023-03-08T01:56:34;6.37;;;5.47;;
8060;SDS011;4073;42.626;25.386;2023-03-08T01:59:01;8.77;;;7.47;;
8060;SDS011;4073;42.626;25.386;2023-03-08T02:01:27;13.60;;;7.67;;
8060;SDS011;4073;42.626;25.386;2023-03-08T02:03:53;11.77;;;8.20;;
8060;SDS011;4073;42.626;25.386;2023-03-08T02:06:18;9.57;;;7.97;;
8060;SDS011;4073;42.626;25.386;2023-03-08T02:08:45;10.47;;;7.30;;
8060;SDS011;4073;42.626;25.386;2023-03-08T02:11:11;11.33;;;8.27;;
8060;SDS011;4073;42.626;25.386;2023-03-08T02:13:39;8.33;;;7.53;;
8060;SDS011;4073;42.626;25.386;2023-03-08T02:16:06;8.90;;;7.13;;
8060;SDS011;4073;42.626;25.386;2023-03-08T02:18:33;8.83;;;7.23;;
8060;SDS011;4073;42.626;25.386;2023-03-08T02:20:59;8.83;;;7.47;;
8060;SDS011;4073;42.626;25.386;2023-03-08T02:23:25;7.40;;;6.60;;
8060;SDS011;4073;42.626;25.386;2023-03-08T02:25:51;8.60;;;7.60;;
8060;SDS011;4073;42.626;25.386;2023-03-08T02:28:26;10.13;;;7.73;;
8060;SDS011;4073;42.626;25.386;2023-03-08T02:30:53;10.57;;;7.90;;
8060;SDS011;4073;42.626;25.386;2023-03-08T02:33:19;8.40;;;7.43;;
8060;SDS011;4073;42.626;25.386;2023-03-08T02:35:45;12.07;;;7.93;;
8060;SDS011;4073;42.626;25.386;2023-03-08T02:38:11;9.50;;;7.93;;
8060;SDS011;4073;42.626;25.386;2023-03-08T02:40:39;9.07;;;8.13;;
8060;SDS011;4073;42.626;25.386;2023-03-08T02:43:04;10.60;;;9.17;;
8060;SDS011;4073;42.626;25.386;2023-03-08T02:45:31;12.37;;;9.67;;
8060;SDS011;4073;42.626;25.386;2023-03-08T02:47:58;9.73;;;8.83;;
8060;SDS011;4073;42.626;25.386;2023-03-08T02:50:27;13.73;;;9.83;;
8060;SDS011;4073;42.626;25.386;2023-03-08T02:52:53;11.13;;;9.20;;
8060;SDS011;4073;42.626;25.386;2023-03-08T02:55:18;9.90;;;8.70;;
8060;SDS011;4073;42.626;25.386;2023-03-08T02:57:43;10.40;;;8.07;;
8060;SDS011;4073;42.626;25.386;2023-03-08T03:00:09;9.63;;;8.27;;
8060;SDS011;4073;42.626;25.386;2023-03-08T03:02:35;11.10;;;8.57;;
8060;SDS011;4073;42.626;25.386;2023-03-08T03:05:02;8.90;;;8.00;;
8060;SDS011;4073;42.626;25.386;2023-03-08T03:07:29;9.37;;;8.07;;
8060;SDS011;4073;42.626;25.386;2023-03-08T03:09:54;9.90;;;7.90;;
8060;SDS011;4073;42.626;25.386;2023-03-08T03:12:20;10.47;;;8.03;;
8060;SDS011;4073;42.626;25.386;2023-03-08T03:14:45;10.67;;;7.67;;
8060;SDS011;4073;42.626;25.386;2023-03-08T03:17:11;10.90;;;7.97;;
8060;SDS011;4073;42.626;25.386;2023-03-08T03:19:36;33.17;;;18.57;;
8060;SDS011;4073;42.626;25.386;2023-03-08T03:22:02;29.53;;;19.10;;
8060;SDS011;4073;42.626;25.386;2023-03-08T03:24:28;21.27;;;12.83;;
8060;SDS011;4073;42.626;25.386;2023-03-08T03:26:54;13.43;;;9.73;;
8060;SDS011;4073;42.626;25.386;2023-03-08T03:29:19;11.73;;;8.83;;
8060;SDS011;4073;42.626;25.386;2023-03-08T03:31:45;8.63;;;7.67;;
8060;SDS011;4073;42.626;25.386;2023-03-08T03:34:12;8.67;;;7.50;;
8060;SDS011;4073;42.626;25.386;2023-03-08T03:36:38;11.33;;;7.80;;
8060;SDS011;4073;42.626;25.386;2023-03-08T03:39:04;10.00;;;8.53;;
8060;SDS011;4073;42.626;25.386;2023-03-08T03:41:29;12.47;;;8.33;;
8060;SDS011;4073;42.626;25.386;2023-03-08T03:43:54;10.17;;;7.30;;
8060;SDS011;4073;42.626;25.386;2023-03-08T03:46:21;9.77;;;7.60;;
8060;SDS011;4073;42.626;25.386;2023-03-08T03:48:47;17.60;;;10.57;;
8060;SDS011;4073;42.626;25.386;2023-03-08T03:51:13;11.20;;;7.90;;
8060;SDS011;4073;42.626;25.386;2023-03-08T03:53:40;12.13;;;7.90;;
8060;SDS011;4073;42.626;25.386;2023-03-08T03:58:32;8.47;;;7.40;;
8060;SDS011;4073;42.626;25.386;2023-03-08T04:00:58;10.10;;;6.63;;
8060;SDS011;4073;42.626;25.386;2023-03-08T04:03:23;8.93;;;7.93;;
8060;SDS011;4073;42.626;25.386;2023-03-08T04:05:49;10.30;;;6.43;;
8060;SDS011;4073;42.626;25.386;2023-03-08T04:08:15;10.13;;;7.53;;
8060;SDS011;4073;42.626;25.386;2023-03-08T04:10:41;10.50;;;7.33;;
8060;SDS011;4073;42.626;25.386;2023-03-08T04:13:06;8.97;;;7.67;;
8060;SDS011;4073;42.626;25.386;2023-03-08T04:15:32;8.97;;;7.17;;
8060;SDS011;4073;42.626;25.386;2023-03-08T04:17:57;7.73;;;6.93;;
8060;SDS011;4073;42.626;25.386;2023-03-08T04:20:23;9.60;;;7.57;;
8060;SDS011;4073;42.626;25.386;2023-03-08T04:22:48;9.83;;;7.43;;
8060;SDS011;4073;42.626;25.386;2023-03-08T04:25:14;10.70;;;8.00;;
8060;SDS011;4073;42.626;25.386;2023-03-08T04:27:39;11.13;;;8.43;;
8060;SDS011;4073;42.626;25.386;2023-03-08T04:30:05;12.57;;;7.33;;
8060;SDS011;4073;42.626;25.386;2023-03-08T04:32:31;11.17;;;7.07;;
8060;SDS011;4073;42.626;25.386;2023-03-08T04:34:57;10.33;;;7.40;;
8060;SDS011;4073;42.626;25.386;2023-03-08T04:37:22;10.47;;;7.17;;
8060;SDS011;4073;42.626;25.386;2023-03-08T04:39:48;10.53;;;8.20;;
8060;SDS011;4073;42.626;25.386;2023-03-08T04:42:14;10.97;;;8.77;;
8060;SDS011;4073;42.626;25.386;2023-03-08T04:44:39;11.57;;;9.03;;
8060;SDS011;4073;42.626;25.386;2023-03-08T04:47:05;11.00;;;8.47;;
8060;SDS011;4073;42.626;25.386;2023-03-08T04:49:30;10.73;;;8.57;;
8060;SDS011;4073;42.626;25.386;2023-03-08T04:51:56;8.93;;;8.03;;
8060;SDS011;4073;42.626;25.386;2023-03-08T04:54:21;13.13;;;9.00;;
8060;SDS011;4073;42.626;25.386;2023-03-08T04:56:46;9.93;;;8.93;;
8060;SDS011;4073;42.626;25.386;2023-03-08T04:59:12;11.93;;;8.57;;
8060;SDS011;4073;42.626;25.386;2023-03-08T05:01:37;12.63;;;9.07;;
8060;SDS011;4073;42.626;25.386;2023-03-08T05:04:03;13.70;;;11.57;;
8060;SDS011;4073;42.626;25.386;2023-03-08T05:06:28;12.53;;;9.83;;
8060;SDS011;4073;42.626;25.386;2023-03-08T05:08:54;14.70;;;10.07;;
8060;SDS011;4073;42.626;25.386;2023-03-08T05:11:21;12.60;;;10.20;;
8060;SDS011;4073;42.626;25.386;2023-03-08T05:13:55;10.90;;;9.37;;
8060;SDS011;4073;42.626;25.386;2023-03-08T05:16:21;10.87;;;9.57;;
8060;SDS011;4073;42.626;25.386;2023-03-08T05:18:47;11.63;;;8.90;;
8060;SDS011;4073;42.626;25.386;2023-03-08T05:21:14;12.63;;;9.33;;
8060;SDS011;4073;42.626;25.386;2023-03-08T05:23:41;10.30;;;9.20;;
8060;SDS011;4073;42.626;25.386;2023-03-08T05:26:07;11.27;;;8.47;;
8060;SDS011;4073;42.626;25.386;2023-03-08T05:28:34;12.17;;;8.97;;
8060;SDS011;4073;42.626;25.386;2023-03-08T05:31:07;11.10;;;7.57;;
8060;SDS011;4073;42.626;25.386;2023-03-08T05:33:35;10.60;;;7.97;;
8060;SDS011;4073;42.626;25.386;2023-03-08T05:36:02;11.80;;;8.63;;
8060;SDS011;4073;42.626;25.386;2023-03-08T05:38:28;14.07;;;10.00;;
8060;SDS011;4073;42.626;25.386;2023-03-08T05:40:53;16.00;;;10.57;;
8060;SDS011;4073;42.626;25.386;2023-03-08T05:43:19;17.93;;;12.10;;
8060;SDS011;4073;42.626;25.386;2023-03-08T05:45:55;13.73;;;9.43;;
8060;SDS011;4073;42.626;25.386;2023-03-08T05:48:23;12.67;;;8.70;;
8060;SDS011;4073;42.626;25.386;2023-03-08T05:50:49;13.17;;;9.83;;
8060;SDS011;4073;42.626;25.386;2023-03-08T05:53:15;15.40;;;9.70;;
8060;SDS011;4073;42.626;25.386;2023-03-08T05:55:40;11.50;;;9.13;;
8060;SDS011;4073;42.626;25.386;2023-03-08T05:58:05;9.30;;;8.30;;
8060;SDS011;4073;42.626;25.386;2023-03-08T06:00:31;8.67;;;7.57;;
8060;SDS011;4073;42.626;25.386;2023-03-08T06:02:59;9.23;;;8.17;;
8060;SDS011;4073;42.626;25.386;2023-03-08T06:05:28;12.03;;;8.20;;
8060;SDS011;4073;42.626;25.386;2023-03-08T06:07:54;8.50;;;7.67;;
8060;SDS011;4073;42.626;25.386;2023-03-08T06:10:19;9.57;;;8.10;;
8060;SDS011;4073;42.626;25.386;2023-03-08T06:12:45;10.73;;;9.27;;
8060;SDS011;4073;42.626;25.386;2023-03-08T06:15:10;9.77;;;8.77;;
8060;SDS011;4073;42.626;25.386;2023-03-08T06:17:37;14.20;;;10.47;;
8060;SDS011;4073;42.626;25.386;2023-03-08T06:20:03;14.67;;;11.40;;
8060;SDS011;4073;42.626;25.386;2023-03-08T06:22:28;13.93;;;12.33;;
8060;SDS011;4073;42.626;25.386;2023-03-08T06:24:54;14.40;;;10.93;;
8060;SDS011;4073;42.626;25.386;2023-03-08T06:27:19;12.77;;;10.33;;
8060;SDS011;4073;42.626;25.386;2023-03-08T06:29:45;11.13;;;10.07;;
8060;SDS011;4073;42.626;25.386;2023-03-08T06:32:12;14.83;;;11.27;;
8060;SDS011;4073;42.626;25.386;2023-03-08T06:34:37;11.93;;;10.00;;
8060;SDS011;4073;42.626;25.386;2023-03-08T06:37:03;13.20;;;9.53;;
8060;SDS011;4073;42.626;25.386;2023-03-08T06:39:28;12.07;;;9.47;;
8060;SDS011;4073;42.626;25.386;2023-03-08T06:41:55;12.63;;;10.33;;
8060;SDS011;4073;42.626;25.386;2023-03-08T06:44:21;10.00;;;9.00;;
8060;SDS011;4073;42.626;25.386;2023-03-08T06:46:46;12.70;;;9.70;;
8060;SDS011;4073;42.626;25.386;2023-03-08T06:49:12;12.37;;;8.77;;
8060;SDS011;4073;42.626;25.386;2023-03-08T06:51:37;9.87;;;7.93;;
8060;SDS011;4073;42.626;25.386;2023-03-08T06:54:03;7.20;;;6.47;;
8060;SDS011;4073;42.626;25.386;2023-03-08T06:56:28;7.10;;;6.00;;
8060;SDS011;4073;42.626;25.386;2023-03-08T06:58:54;8.70;;;6.77;;
8060;SDS011;4073;42.626;25.386;2023-03-08T07:01:19;7.10;;;6.40;;
8060;SDS011;4073;42.626;25.386;2023-03-08T07:03:45;8.13;;;6.73;;
8060;SDS011;4073;42.626;25.386;2023-03-08T07:06:12;7.20;;;6.50;;
8060;SDS011;4073;42.626;25.386;2023-03-08T07:08:38;7.83;;;5.97;;
8060;SDS011;4073;42.626;25.386;2023-03-08T07:11:04;7.97;;;6.17;;
8060;SDS011;4073;42.626;25.386;2023-03-08T07:13:30;8.33;;;6.07;;
8060;SDS011;4073;42.626;25.386;2023-03-08T07:15:56;6.87;;;5.27;;
8060;SDS011;4073;42.626;25.386;2023-03-08T07:18:21;6.47;;;5.27;;
8060;SDS011;4073;42.626;25.386;2023-03-08T07:21:05;7.93;;;5.07;;
8060;SDS011;4073;42.626;25.386;2023-03-08T07:23:31;7.83;;;6.80;;
8060;SDS011;4073;42.626;25.386;2023-03-08T07:25:57;7.03;;;6.30;;
8060;SDS011;4073;42.626;25.386;2023-03-08T07:28:22;5.93;;;5.10;;
8060;SDS011;4073;42.626;25.386;2023-03-08T07:30:49;5.43;;;4.90;;
8060;SDS011;4073;42.626;25.386;2023-03-08T07:33:15;7.80;;;4.90;;
8060;SDS011;4073;42.626;25.386;2023-03-08T07:35:42;5.87;;;4.80;;
8060;SDS011;4073;42.626;25.386;2023-03-08T07:38:07;5.37;;;4.87;;
8060;SDS011;4073;42.626;25.386;2023-03-08T07:40:32;7.00;;;4.87;;
8060;SDS011;4073;42.626;25.386;2023-03-08T07:42:58;6.30;;;4.77;;
8060;SDS011;4073;42.626;25.386;2023-03-08T07:45:24;7.53;;;5.73;;
8060;SDS011;4073;42.626;25.386;2023-03-08T07:47:50;6.57;;;4.73;;
8060;SDS011;4073;42.626;25.386;2023-03-08T07:50:19;7.07;;;4.17;;
8060;SDS011;4073;42.626;25.386;2023-03-08T07:52:45;6.70;;;4.50;;
8060;SDS011;4073;42.626;25.386;2023-03-08T07:55:11;4.03;;;3.73;;
8060;SDS011;4073;42.626;25.386;2023-03-08T07:57:37;12.47;;;5.50;;
8060;SDS011;4073;42.626;25.386;2023-03-08T08:00:03;11.33;;;5.60;;
8060;SDS011;4073;42.626;25.386;2023-03-08T08:02:33;9.40;;;5.47;;
8060;SDS011;4073;42.626;25.386;2023-03-08T08:04:59;6.87;;;5.43;;
8060;SDS011;4073;42.626;25.386;2023-03-08T08:07:25;7.60;;;4.70;;
8060;SDS011;4073;42.626;25.386;2023-03-08T08:09:52;5.90;;;5.20;;
8060;SDS011;4073;42.626;25.386;2023-03-08T08:12:18;7.37;;;6.37;;
8060;SDS011;4073;42.626;25.386;2023-03-08T08:14:43;8.20;;;6.23;;
8060;SDS011;4073;42.626;25.386;2023-03-08T08:17:09;9.47;;;5.83;;
8060;SDS011;4073;42.626;25.386;2023-03-08T08:19:35;6.07;;;5.47;;
8060;SDS011;4073;42.626;25.386;2023-03-08T08:22:01;9.80;;;6.57;;
8060;SDS011;4073;42.626;25.386;2023-03-08T08:24:27;5.77;;;5.07;;
8060;SDS011;4073;42.626;25.386;2023-03-08T08:26:53;6.13;;;5.30;;
8060;SDS011;4073;42.626;25.386;2023-03-08T08:29:18;6.27;;;5.50;;
8060;SDS011;4073;42.626;25.386;2023-03-08T08:31:44;9.03;;;5.80;;
8060;SDS011;4073;42.626;25.386;2023-03-08T08:34:10;6.23;;;5.63;;
8060;SDS011;4073;42.626;25.386;2023-03-08T08:36:35;9.83;;;5.77;;
8060;SDS011;4073;42.626;25.386;2023-03-08T08:39:00;5.77;;;5.20;;
8060;SDS011;4073;42.626;25.386;2023-03-08T08:41:26;6.53;;;5.63;;
8060;SDS011;4073;42.626;25.386;2023-03-08T08:43:53;6.87;;;5.80;;
8060;SDS011;4073;42.626;25.386;2023-03-08T08:46:23;8.83;;;6.03;;
8060;SDS011;4073;42.626;25.386;2023-03-08T08:48:48;6.83;;;6.03;;
8060;SDS011;4073;42.626;25.386;2023-03-08T08:51:13;6.40;;;5.80;;
8060;SDS011;4073;42.626;25.386;2023-03-08T08:53:39;9.23;;;5.57;;
8060;SDS011;4073;42.626;25.386;2023-03-08T08:56:24;8.03;;;5.77;;
8060;SDS011;4073;42.626;25.386;2023-03-08T08:58:50;5.60;;;4.37;;
8060;SDS011;4073;42.626;25.386;2023-03-08T09:01:17;5.23;;;4.43;;
8060;SDS011;4073;42.626;25.386;2023-03-08T09:03:45;5.97;;;4.33;;
8060;SDS011;4073;42.626;25.386;2023-03-08T09:06:11;5.00;;;4.40;;
8060;SDS011;4073;42.626;25.386;2023-03-08T09:08:37;4.97;;;4.50;;
8060;SDS011;4073;42.626;25.386;2023-03-08T09:11:04;5.00;;;4.50;;
8060;SDS011;4073;42.626;25.386;2023-03-08T09:13:31;5.40;;;4.90;;
8060;SDS011;4073;42.626;25.386;2023-03-08T09:15:57;5.17;;;4.07;;
8060;SDS011;4073;42.626;25.386;2023-03-08T09:18:22;6.33;;;4.33;;
8060;SDS011;4073;42.626;25.386;2023-03-08T09:20:48;10.43;;;4.17;;
8060;SDS011;4073;42.626;25.386;2023-03-08T09:23:13;5.00;;;3.47;;
8060;SDS011;4073;42.626;25.386;2023-03-08T09:25:39;4.77;;;3.50;;
8060;SDS011;4073;42.626;25.386;2023-03-08T09:28:04;5.70;;;3.60;;
8060;SDS011;4073;42.626;25.386;2023-03-08T09:30:29;5.93;;;3.83;;
8060;SDS011;4073;42.626;25.386;2023-03-08T09:32:57;4.03;;;3.33;;
8060;SDS011;4073;42.626;25.386;2023-03-08T09:35:23;4.60;;;3.83;;
8060;SDS011;4073;42.626;25.386;2023-03-08T09:37:49;5.30;;;3.50;;
8060;SDS011;4073;42.626;25.386;2023-03-08T09:40:19;4.33;;;3.30;;
8060;SDS011;4073;42.626;25.386;2023-03-08T09:42:48;7.97;;;4.13;;
8060;SDS011;4073;42.626;25.386;2023-03-08T09:45:23;3.17;;;2.87;;
8060;SDS011;4073;42.626;25.386;2023-03-08T09:50:41;5.50;;;3.63;;
8060;SDS011;4073;42.626;25.386;2023-03-08T09:59:10;3.70;;;3.10;;
8060;SDS011;4073;42.626;25.386;2023-03-08T10:12:55;4.60;;;2.40;;
8060;SDS011;4073;42.626;25.386;2023-03-08T10:15:33;2.53;;;1.90;;
8060;SDS011;4073;42.626;25.386;2023-03-08T10:18:26;4.67;;;3.10;;
8060;SDS011;4073;42.626;25.386;2023-03-08T10:20:59;4.73;;;2.50;;
8060;SDS011;4073;42.626;25.386;2023-03-08T10:23:27;4.30;;;2.07;;
8060;SDS011;4073;42.626;25.386;2023-03-08T10:25:55;3.80;;;1.90;;
8060;SDS011;4073;42.626;25.386;2023-03-08T10:28:22;2.00;;;1.80;;
8060;SDS011;4073;42.626;25.386;2023-03-08T10:30:53;2.80;;;2.10;;
8060;SDS011;4073;42.626;25.386;2023-03-08T10:33:22;2.80;;;1.73;;
8060;SDS011;4073;42.626;25.386;2023-03-08T10:38:36;5.47;;;2.77;;
8060;SDS011;4073;42.626;25.386;2023-03-08T10:43:30;3.13;;;2.40;;
8060;SDS011;4073;42.626;25.386;2023-03-08T10:45:59;2.70;;;2.37;;
8060;SDS011;4073;42.626;25.386;2023-03-08T10:48:27;4.47;;;3.00;;
8060;SDS011;4073;42.626;25.386;2023-03-08T10:51:02;5.77;;;3.63;;
8060;SDS011;4073;42.626;25.386;2023-03-08T10:53:30;4.30;;;3.00;;
8060;SDS011;4073;42.626;25.386;2023-03-08T10:55:57;3.73;;;2.53;;
8060;SDS011;4073;42.626;25.386;2023-03-08T11:00:56;4.00;;;1.80;;
8060;SDS011;4073;42.626;25.386;2023-03-08T11:03:24;2.27;;;2.03;;
8060;SDS011;4073;42.626;25.386;2023-03-08T11:08:31;2.13;;;1.67;;
8060;SDS011;4073;42.626;25.386;2023-03-08T11:11:03;2.43;;;1.70;;
8060;SDS011;4073;42.626;25.386;2023-03-08T11:13:32;2.27;;;1.97;;
8060;SDS011;4073;42.626;25.386;2023-03-08T11:18:59;3.87;;;2.83;;
8060;SDS011;4073;42.626;25.386;2023-03-08T11:21:35;3.47;;;1.87;;
8060;SDS011;4073;42.626;25.386;2023-03-08T11:43:07;3.40;;;1.70;;
8060;SDS011;4073;42.626;25.386;2023-03-08T11:51:31;3.23;;;1.50;;
8060;SDS011;4073;42.626;25.386;2023-03-08T11:56:54;4.20;;;2.60;;
8060;SDS011;4073;42.626;25.386;2023-03-08T12:07:17;5.00;;;2.00;;
8060;SDS011;4073;42.626;25.386;2023-03-08T12:12:46;4.63;;;1.93;;
8060;SDS011;4073;42.626;25.386;2023-03-08T12:20:47;4.67;;;2.57;;
8060;SDS011;4073;42.626;25.386;2023-03-08T12:25:39;3.20;;;1.50;;
8060;SDS011;4073;42.626;25.386;2023-03-08T12:33:33;3.40;;;2.50;;
8060;SDS011;4073;42.626;25.386;2023-03-08T12:36:03;3.23;;;2.67;;
8060;SDS011;4073;42.626;25.386;2023-03-08T12:40:57;25.27;;;17.43;;
8060;SDS011;4073;42.626;25.386;2023-03-08T12:48:26;1.80;;;1.40;;
8060;SDS011;4073;42.626;25.386;2023-03-08T12:53:32;1.93;;;1.50;;
8060;SDS011;4073;42.626;25.386;2023-03-08T12:58:33;1.97;;;1.80;;
8060;SDS011;4073;42.626;25.386;2023-03-08T13:01:22;2.97;;;1.97;;
8060;SDS011;4073;42.626;25.386;2023-03-08T13:03:51;2.20;;;1.90;;
8060;SDS011;4073;42.626;25.386;2023-03-08T13:08:51;1.83;;;1.60;;
8060;SDS011;4073;42.626;25.386;2023-03-08T13:11:19;2.83;;;1.37;;
8060;SDS011;4073;42.626;25.386;2023-03-08T13:16:28;2.73;;;2.03;;
8060;SDS011;4073;42.626;25.386;2023-03-08T13:19:00;2.50;;;1.50;;
8060;SDS011;4073;42.626;25.386;2023-03-08T13:21:32;3.50;;;2.70;;
8060;SDS011;4073;42.626;25.386;2023-03-08T13:29:29;2.53;;;1.77;;
8060;SDS011;4073;42.626;25.386;2023-03-08T13:31:56;2.20;;;1.47;;
8060;SDS011;4073;42.626;25.386;2023-03-08T13:34:24;2.60;;;2.00;;
8060;SDS011;4073;42.626;25.386;2023-03-08T13:36:55;4.63;;;3.60;;
8060;SDS011;4073;42.626;25.386;2023-03-08T13:39:22;2.27;;;2.00;;
8060;SDS011;4073;42.626;25.386;2023-03-08T13:41:50;6.83;;;4.83;;
8060;SDS011;4073;42.626;25.386;2023-03-08T13:44:22;2.60;;;2.10;;
8060;SDS011;4073;42.626;25.386;2023-03-08T13:46:51;2.63;;;2.43;;
8060;SDS011;4073;42.626;25.386;2023-03-08T13:49:21;2.63;;;1.43;;
8060;SDS011;4073;42.626;25.386;2023-03-08T13:51:50;3.23;;;1.97;;
8060;SDS011;4073;42.626;25.386;2023-03-08T13:54:41;2.20;;;2.00;;
8060;SDS011;4073;42.626;25.386;2023-03-08T13:57:18;5.03;;;4.63;;
8060;SDS011;4073;42.626;25.386;2023-03-08T13:59:51;11.07;;;9.97;;
8060;SDS011;4073;42.626;25.386;2023-03-08T14:02:19;5.10;;;4.33;;
8060;SDS011;4073;42.626;25.386;2023-03-08T14:04:47;4.23;;;2.53;;
8060;SDS011;4073;42.626;25.386;2023-03-08T14:07:30;3.73;;;3.20;;
8060;SDS011;4073;42.626;25.386;2023-03-08T14:09:56;2.70;;;2.50;;
8060;SDS011;4073;42.626;25.386;2023-03-08T14:12:23;2.17;;;1.97;;
8060;SDS011;4073;42.626;25.386;2023-03-08T14:14:56;2.93;;;2.30;;
8060;SDS011;4073;42.626;25.386;2023-03-08T14:17:25;4.40;;;4.00;;
8060;SDS011;4073;42.626;25.386;2023-03-08T14:19:55;6.10;;;3.33;;
8060;SDS011;4073;42.626;25.386;2023-03-08T14:22:24;3.00;;;2.70;;
8060;SDS011;4073;42.626;25.386;2023-03-08T14:24:54;4.10;;;2.57;;
8060;SDS011;4073;42.626;25.386;2023-03-08T14:27:40;2.77;;;2.50;;
8060;SDS011;4073;42.626;25.386;2023-03-08T14:32:38;2.77;;;2.30;;
8060;SDS011;4073;42.626;25.386;2023-03-08T14:35:19;2.40;;;2.03;;
8060;SDS011;4073;42.626;25.386;2023-03-08T14:37:48;6.30;;;2.67;;
8060;SDS011;4073;42.626;25.386;2023-03-08T14:43:14;6.27;;;2.77;;
8060;SDS011;4073;42.626;25.386;2023-03-08T14:45:49;4.63;;;3.40;;
8060;SDS011;4073;42.626;25.386;2023-03-08T14:50:49;9.63;;;7.03;;
8060;SDS011;4073;42.626;25.386;2023-03-08T14:53:34;4.10;;;3.73;;
8060;SDS011;4073;42.626;25.386;2023-03-08T14:56:06;6.10;;;4.00;;
8060;SDS011;4073;42.626;25.386;2023-03-08T14:58:37;5.53;;;3.97;;
8060;SDS011;4073;42.626;25.386;2023-03-08T15:01:07;4.50;;;3.50;;
8060;SDS011;4073;42.626;25.386;2023-03-08T15:03:33;5.47;;;3.33;;
8060;SDS011;4073;42.626;25.386;2023-03-08T15:06:00;2.93;;;1.93;;
8060;SDS011;4073;42.626;25.386;2023-03-08T15:08:35;4.03;;;2.80;;
8060;SDS011;4073;42.626;25.386;2023-03-08T15:11:01;5.60;;;2.30;;
8060;SDS011;4073;42.626;25.386;2023-03-08T15:13:26;4.13;;;2.37;;
8060;SDS011;4073;42.626;25.386;2023-03-08T15:15:52;3.33;;;2.43;;
8060;SDS011;4073;42.626;25.386;2023-03-08T15:18:17;3.67;;;3.07;;
8060;SDS011;4073;42.626;25.386;2023-03-08T15:20:44;2.37;;;2.10;;
8060;SDS011;4073;42.626;25.386;2023-03-08T15:26:06;3.07;;;2.50;;
8060;SDS011;4073;42.626;25.386;2023-03-08T15:28:32;4.00;;;2.27;;
8060;SDS011;4073;42.626;25.386;2023-03-08T15:30:58;2.30;;;2.10;;
8060;SDS011;4073;42.626;25.386;2023-03-08T15:33:23;2.43;;;1.90;;
8060;SDS011;4073;42.626;25.386;2023-03-08T15:35:49;1.90;;;1.50;;
8060;SDS011;4073;42.626;25.386;2023-03-08T15:38:15;2.20;;;1.80;;
8060;SDS011;4073;42.626;25.386;2023-03-08T15:40:42;2.40;;;2.17;;
8060;SDS011;4073;42.626;25.386;2023-03-08T15:43:08;3.47;;;2.57;;
8060;SDS011;4073;42.626;25.386;2023-03-08T15:45:34;2.77;;;2.43;;
8060;SDS011;4073;42.626;25.386;2023-03-08T15:48:01;2.93;;;2.63;;
8060;SDS011;4073;42.626;25.386;2023-03-08T15:50:31;4.63;;;3.20;;
8060;SDS011;4073;42.626;25.386;2023-03-08T15:52:58;2.93;;;2.53;;
8060;SDS011;4073;42.626;25.386;2023-03-08T15:55:25;4.17;;;3.00;;
8060;SDS011;4073;42.626;25.386;2023-03-08T15:57:52;3.87;;;3.17;;
8060;SDS011;4073;42.626;25.386;2023-03-08T16:00:18;5.03;;;3.23;;
8060;SDS011;4073;42.626;25.386;2023-03-08T16:02:45;4.03;;;3.40;;
8060;SDS011;4073;42.626;25.386;2023-03-08T16:05:11;4.17;;;2.60;;
8060;SDS011;4073;42.626;25.386;2023-03-08T16:07:37;4.20;;;3.10;;
8060;SDS011;4073;42.626;25.386;2023-03-08T16:10:04;4.20;;;2.53;;
8060;SDS011;4073;42.626;25.386;2023-03-08T16:12:31;7.70;;;2.70;;
8060;SDS011;4073;42.626;25.386;2023-03-08T16:14:56;3.47;;;3.03;;
8060;SDS011;4073;42.626;25.386;2023-03-08T16:17:22;8.67;;;5.20;;
8060;SDS011;4073;42.626;25.386;2023-03-08T16:19:50;6.30;;;5.37;;
8060;SDS011;4073;42.626;25.386;2023-03-08T16:22:16;9.17;;;4.40;;
8060;SDS011;4073;42.626;25.386;2023-03-08T16:24:42;5.43;;;4.20;;
8060;SDS011;4073;42.626;25.386;2023-03-08T16:27:27;7.17;;;4.23;;
8060;SDS011;4073;42.626;25.386;2023-03-08T16:29:55;10.53;;;4.77;;
8060;SDS011;4073;42.626;25.386;2023-03-08T16:32:20;7.63;;;5.37;;
8060;SDS011;4073;42.626;25.386;2023-03-08T16:34:46;5.07;;;4.57;;
8060;SDS011;4073;42.626;25.386;2023-03-08T16:37:15;7.83;;;7.03;;
8060;SDS011;4073;42.626;25.386;2023-03-08T16:39:44;11.37;;;6.03;;
8060;SDS011;4073;42.626;25.386;2023-03-08T16:42:11;8.20;;;4.50;;
8060;SDS011;4073;42.626;25.386;2023-03-08T16:44:37;18.47;;;8.23;;
8060;SDS011;4073;42.626;25.386;2023-03-08T16:47:03;11.57;;;7.03;;
8060;SDS011;4073;42.626;25.386;2023-03-08T16:49:29;8.07;;;6.10;;
8060;SDS011;4073;42.626;25.386;2023-03-08T16:51:54;17.37;;;9.90;;
8060;SDS011;4073;42.626;25.386;2023-03-08T16:54:20;11.93;;;7.03;;
8060;SDS011;4073;42.626;25.386;2023-03-08T16:56:47;8.37;;;6.30;;
8060;SDS011;4073;42.626;25.386;2023-03-08T16:59:13;9.50;;;7.00;;
8060;SDS011;4073;42.626;25.386;2023-03-08T17:01:39;9.37;;;7.20;;